• Join FlightAware (Why Join?)
  • Login
  • US Flag 
07:41PM EDT


 

Airport Tracker/Info


-or-


 

Live Flight TrackerFlight Track Log ✈ SWA1563 ✈ 04-Apr-2014 ✈ KPHX - KOAK

Flight Track Log - Related Links

Times and Time Zones

All times are in EDT time to prevent confusion due to time zone crossing. See the SWA1563 flight status page for this flight to view local times or setup timezone preferences in your user account.

Time Position Orientation Groundspeed Altitude Reporting Facility
EDT Latitude Longitude Course Direction KTS MPH feet Rate Location/Type
07:43PM 33.4167 -112.0833 248° West 212 244 3,000  Level Phoenix TRACON
07:45PM 33.4100 -112.2078 266° West 265 305 7,300 2,760 Climbing Albuquerque Center
07:46PM 33.4167 -112.3028 275° West 282 325 10,900 3,480 Climbing Albuquerque Center
07:47PM 33.4264 -112.4386 275° West 341 392 14,500 3,420 Climbing Albuquerque Center
07:48PM 33.4350 -112.5553 275° West 347 399 18,000 3,000 Climbing Albuquerque Center
07:49PM 33.4414 -112.6625 274° West 352 405 20,700 2,640 Climbing Albuquerque Center
07:50PM 33.4519 -112.8097 275° West 366 421 23,500 2,340 Climbing Albuquerque Center
07:51PM 33.4756 -112.9375 283° West 386 444 25,500 1,680 Climbing Albuquerque Center
07:52PM 33.5006 -113.0708 283° West 405 466 27,000 1,560 Climbing Albuquerque Center
07:53PM 33.5269 -113.2075 283° West 416 479 28,700 1,800 Climbing Albuquerque Center
07:54PM 33.5531 -113.3442 283° West 423 487 30,800 2,040 Climbing Albuquerque Center
07:55PM 33.5781 -113.4786 283° West 421 484 33,000 2,040 Climbing Albuquerque Center
07:56PM 33.6017 -113.6067 283° West 403 464 35,000 1,620 Climbing Albuquerque Center
07:57PM 33.6281 -113.7511 282° West 396 456 36,400 1,380 Climbing Albuquerque Center
07:58PM 33.6533 -113.8819 283° West 397 457 37,900 1,380 Climbing Albuquerque Center
07:59PM 33.6764 -114.0072 283° West 392 451 39,300 840 Climbing Albuquerque Center
08:01PM 33.6994 -114.1328 282° West 388 447 39,700 240 Climbing Albuquerque Center
08:02PM 33.7236 -114.2717 282° West 395 455 39,900 120 Climbing Albuquerque Center
08:03PM 33.7536 -114.4039 285° West 407 468 40,000  Climbing Albuquerque Center
08:04PM 33.7892 -114.5339 288° West 408 470 40,000  Level Albuquerque Center
08:05PM 33.8364 -114.7208 287° West 411 473 40,000  Level Los Angeles Center
08:06PM 33.8758 -114.8775 287° West 411 473 40,000  Level Los Angeles Center
08:07PM 33.9097 -115.0072 288° West 410 472 40,000  Level Los Angeles Center
08:08PM 33.9411 -115.1381 286° West 410 472 40,000  Level Los Angeles Center
08:09PM 33.9733 -115.2686 287° West 410 472 40,000  Level Los Angeles Center
08:10PM 34.0053 -115.3983 287° West 409 471 40,000  Level Los Angeles Center
08:11PM 34.0381 -115.5297 287° West 410 472 40,000  Level Los Angeles Center
08:12PM 34.0769 -115.6886 287° West 410 472 40,000  Level Los Angeles Center
08:13PM 34.1097 -115.8200 287° West 411 473 40,000  Level Los Angeles Center
08:14PM 34.1439 -115.9622 286° West 411 473 40,000  Level Los Angeles Center
08:15PM 34.1756 -116.0961 286° West 413 475 40,000  Level Los Angeles Center
08:16PM 34.2075 -116.2303 286° West 414 476 40,000  Level Los Angeles Center
08:17PM 34.2397 -116.3650 286° West 415 478 40,000  Level Los Angeles Center
08:18PM 34.2714 -116.4994 286° West 415 478 40,000  Level Los Angeles Center
08:19PM 34.3042 -116.6317 287° West 412 474 40,000  Level Los Angeles Center
08:21PM 34.3411 -116.7936 285° West 414 476 40,000  Level Los Angeles Center
08:22PM 34.3731 -116.9278 286° West 414 476 40,000  Level Los Angeles Center
08:23PM 34.4042 -117.0631 286° West 415 478 40,000  Level Los Angeles Center
08:24PM 34.4350 -117.1994 285° West 416 479 40,000  Level Los Angeles Center
08:25PM 34.4658 -117.3342 286° West 416 479 40,000  Level Los Angeles Center
08:26PM 34.4967 -117.4689 286° West 415 478 40,000  Level Los Angeles Center
08:27PM 34.5328 -117.6303 285° West 414 476 40,000  Level Los Angeles Center
08:28PM 34.5639 -117.7664 286° West 415 478 40,000  Level Los Angeles Center
08:29PM 34.5944 -117.9042 285° West 418 481 40,000  Level Los Angeles Center
08:30PM 34.6244 -118.0411 285° West 418 481 40,000  Level Los Angeles Center
08:31PM 34.6544 -118.1800 285° West 420 483 40,000  Level Los Angeles Center
08:32PM 34.6844 -118.3164 285° West 420 483 40,000  Level Los Angeles Center
08:33PM 34.7358 -118.4719 292° West 421 484 40,000  Level Los Angeles Center
08:34PM 34.8117 -118.5583 317° Northwest 430 495 40,000  Level Los Angeles Center
08:35PM 34.9008 -118.6586 317° Northwest 421 484 40,000  Level Los Angeles Center
08:36PM 35.0039 -118.7767 317° Northwest 421 484 40,000  Level Los Angeles Center
08:37PM 35.0892 -118.8722 317° Northwest 421 484 40,000  Level Los Angeles Center
08:38PM 35.1747 -118.9700 317° Northwest 421 484 40,000  Level Los Angeles Center
08:39PM 35.2608 -119.0667 318° Northwest 423 487 40,000  Level Los Angeles Center
08:40PM 35.3458 -119.1650 317° Northwest 423 487 40,000  Level Los Angeles Center
08:41PM 35.4292 -119.2611 317° Northwest 418 481 40,000  Level Los Angeles Center
08:42PM 35.5306 -119.3786 317° Northwest 419 482 40,000  Level Los Angeles Center
08:43PM 35.6150 -119.4761 317° Northwest 419 482 40,000  Level Los Angeles Center
08:44PM 35.6981 -119.5731 317° Northwest 418 481 40,000  Level Los Angeles Center
08:45PM 35.7836 -119.6719 317° Northwest 423 487 40,000  Level Los Angeles Center
08:46PM 35.8667 -119.7714 316° Northwest 422 486 40,000  Level Los Angeles Center
08:47PM 35.9675 -119.8897 316° Northwest 421 484 40,000 -540 Level Los Angeles Center
08:48PM 36.0506 -119.9881 316° Northwest 420 483 39,000 -1,020 Descending Los Angeles Center
08:49PM 36.1331 -120.0864 316° Northwest 418 481 38,000 -960 Descending Los Angeles Center
08:51PM 36.2167 -120.1847 317° Northwest 418 481 37,100 -1,020 Descending Los Angeles Center
08:52PM 36.3136 -120.2964 317° Northwest 406 467 35,900 -1,020 Descending Oakland Center
08:53PM 36.3944 -120.3917 317° Northwest 405 466 35,000 -960 Descending Oakland Center
08:54PM 36.4747 -120.4872 316° Northwest 402 463 34,000 -960 Descending Oakland Center
08:55PM 36.5553 -120.5872 315° West 407 468 33,100 -1,860 Descending Oakland Center
08:56PM 36.6353 -120.6811 317° Northwest 401 461 30,200 -2,760 Descending Oakland Center
08:57PM 36.7136 -120.7769 316° Northwest 399 459 27,500 -2,820 Descending Oakland Center
08:58PM 36.8047 -120.8819 317° Northwest 375 432 24,500 -2,460 Descending Oakland Center
08:59PM 36.8697 -120.9564 318° Northwest 366 421 22,500 -2,220 Descending Oakland Center
09:00PM 36.9467 -121.0469 317° Northwest 374 430 20,000 -2,400 Descending Oakland Center
09:01PM 37.0236 -121.1333 318° Northwest 374 430 17,600 -2,640 Descending Oakland Center
09:02PM 37.1131 -121.2378 317° Northwest 367 422 14,700 -2,580 Descending Oakland Center
09:03PM 37.1831 -121.3172 318° Northwest 346 398 12,400 -2,100 Descending Oakland Center
09:04PM 37.2503 -121.3967 317° Northwest 335 386 10,500 -1,200 Descending Oakland Center
09:05PM 37.3108 -121.4689 317° Northwest 304 350 10,000 -780 Descending Oakland Center
09:06PM 37.3703 -121.5344 319° Northwest 282 325 9,000 -1,020 Descending Oakland Center
09:07PM 37.4247 -121.5978 317° Northwest 272 313 8,000 -1,020 Descending Oakland Center
09:08PM 37.4789 -121.6625 317° Northwest 270 311 7,000 -1,020 Descending Oakland Center
09:09PM 37.5092 -121.7414 296° West 269 310 6,000 -540 Descending Oakland Center
09:10PM 37.5225 -121.8272 281° West 255 293 6,000 -420 Level Oakland Center
09:11PM 37.5353 -121.9142 281° West 254 292 5,200 -900 Descending Oakland Center
09:12PM 37.5483 -121.9939 282° West 245 282 4,200 -900 Descending Oakland Center
09:13PM 37.5922 -122.0544 312° West 237 273 3,400 -1,020 Descending Oakland Center
09:14PM 37.6353 -122.1169 311° West 213 245 2,200 -1,020 Descending Oakland Center
09:15PM 37.6667 -122.1667 309° West 134 154 1,300 -780 Descending Northern Cal TRACON
09:16PM 37.6833 -122.2000 302° West 128 147 600 -720 Descending Northern Cal TRACON
09:19PM 37.7167 -122.2167 270° West  Level FlightAware Approximate
09:26PM 37.7213 -122.2212 270° West  Level Estimated